KAVX

Catalina Airport

Avalon, California, USA
METAR KAVX 230751Z AUTO 28019G27KT 10SM FEW017 08/03 A3017 RMK AO2 PK WND 31027/0718 SLP220 T00780033 401110067
Observed Flight Rules
Feb-23 @ 07:51 UTC (23 minutes ago) Visual Flight Rules
Wind Visibility Clouds
280° at 19 knots
 Gusting to 27 knots
10 miles
  • Few at 1,700' AGL
Temperatures Readings
Current 8°C / 46°F
Dewpoint 3°C / 37°F
Humidity 71%
Altimeter 30.17" Hg
Pressure 1022 hPa
Elevation 482
METAR KAVX 230751Z AUTO 28019G27KT 10SM FEW017 08/03 A3017 RMK AO2 PK WND 31027/0718 SLP220 T00780033 401110067
Observed Flight Rules
Feb-23 @ 07:51 UTC
(23 minutes ago)
VFR
Wind Visibility
280° at 19 knots
 Gusting to 27 knots
10 miles
Clouds
  • Few at 1,700' AGL
Temperature Dewpoint
8°C / 46°F 3°C / 37°F
Humidity Altimeter Pressure
71% 30.17" Hg 1022 hPa